sensor_id;sensor_type;location;lat;lon;timestamp;P1;P2;P0
44871;PMS7003;30602;51.060;17.226;2022-09-30T00:01:25;45;38;25
44871;PMS7003;30602;51.060;17.226;2022-09-30T00:05:19;34;33;24
44871;PMS7003;30602;51.060;17.226;2022-09-30T00:09:01;33;31;21
44871;PMS7003;30602;51.060;17.226;2022-09-30T00:12:12;39;32;22
44871;PMS7003;30602;51.060;17.226;2022-09-30T00:16:09;37;32;19
44871;PMS7003;30602;51.060;17.226;2022-09-30T00:19:45;30;27;17
44871;PMS7003;30602;51.060;17.226;2022-09-30T00:23:07;30;22;17
44871;PMS7003;30602;51.060;17.226;2022-09-30T00:26:22;31;29;21
44871;PMS7003;30602;51.060;17.226;2022-09-30T00:29:51;35;31;20
44871;PMS7003;30602;51.060;17.226;2022-09-30T00:34:10;38;32;21
44871;PMS7003;30602;51.060;17.226;2022-09-30T00:37:30;31;29;21
44871;PMS7003;30602;51.060;17.226;2022-09-30T00:41:09;33;28;22
44871;PMS7003;30602;51.060;17.226;2022-09-30T00:51:30;32;29;20
44871;PMS7003;30602;51.060;17.226;2022-09-30T00:55:06;42;37;24
44871;PMS7003;30602;51.060;17.226;2022-09-30T00:58:52;44;38;25
44871;PMS7003;30602;51.060;17.226;2022-09-30T01:06:29;40;36;24
44871;PMS7003;30602;51.060;17.226;2022-09-30T01:10:04;40;38;25
44871;PMS7003;30602;51.060;17.226;2022-09-30T01:13:37;42;35;24
44871;PMS7003;30602;51.060;17.226;2022-09-30T01:52:23;48;39;25
44871;PMS7003;30602;51.060;17.226;2022-09-30T01:59:32;46;37;25
44871;PMS7003;30602;51.060;17.226;2022-09-30T02:07:00;47;39;27
44871;PMS7003;30602;51.060;17.226;2022-09-30T02:10:45;44;39;26
44871;PMS7003;30602;51.060;17.226;2022-09-30T02:14:51;43;37;23
44871;PMS7003;30602;51.060;17.226;2022-09-30T02:18:35;36;34;24
44871;PMS7003;30602;51.060;17.226;2022-09-30T02:25:40;41;36;24
44871;PMS7003;30602;51.060;17.226;2022-09-30T02:29:35;44;37;25
44871;PMS7003;30602;51.060;17.226;2022-09-30T02:33:34;43;37;25
44871;PMS7003;30602;51.060;17.226;2022-09-30T02:36:50;37;32;23
44871;PMS7003;30602;51.060;17.226;2022-09-30T02:40:16;34;30;23
44871;PMS7003;30602;51.060;17.226;2022-09-30T02:44:15;46;39;26
44871;PMS7003;30602;51.060;17.226;2022-09-30T02:47:29;38;35;26
44871;PMS7003;30602;51.060;17.226;2022-09-30T02:51:30;42;38;26
44871;PMS7003;30602;51.060;17.226;2022-09-30T02:59:02;44;38;26
44871;PMS7003;30602;51.060;17.226;2022-09-30T03:06:57;36;33;22
44871;PMS7003;30602;51.060;17.226;2022-09-30T03:10:27;46;40;25
44871;PMS7003;30602;51.060;17.226;2022-09-30T03:17:50;45;38;26
44871;PMS7003;30602;51.060;17.226;2022-09-30T03:36:59;51;38;26
44871;PMS7003;30602;51.060;17.226;2022-09-30T03:40:30;46;38;25
44871;PMS7003;30602;51.060;17.226;2022-09-30T03:49:00;53;40;25
44871;PMS7003;30602;51.060;17.226;2022-09-30T03:52:35;43;39;26
44871;PMS7003;30602;51.060;17.226;2022-09-30T03:56:06;38;34;23
44871;PMS7003;30602;51.060;17.226;2022-09-30T04:00:36;53;44;28
44871;PMS7003;30602;51.060;17.226;2022-09-30T04:04:25;37;36;26
44871;PMS7003;30602;51.060;17.226;2022-09-30T04:07:35;42;37;28
44871;PMS7003;30602;51.060;17.226;2022-09-30T04:12:03;52;43;27
44871;PMS7003;30602;51.060;17.226;2022-09-30T04:19:49;45;40;27
44871;PMS7003;30602;51.060;17.226;2022-09-30T04:23:12;51;44;27
44871;PMS7003;30602;51.060;17.226;2022-09-30T04:26:45;48;43;28
44871;PMS7003;30602;51.060;17.226;2022-09-30T04:30:14;46;39;28
44871;PMS7003;30602;51.060;17.226;2022-09-30T04:33:52;51;43;27
44871;PMS7003;30602;51.060;17.226;2022-09-30T04:37:42;51;41;27
44871;PMS7003;30602;51.060;17.226;2022-09-30T04:41:15;52;43;28
44871;PMS7003;30602;51.060;17.226;2022-09-30T04:44:32;53;44;28
44871;PMS7003;30602;51.060;17.226;2022-09-30T04:48:16;46;39;26
44871;PMS7003;30602;51.060;17.226;2022-09-30T04:52:41;49;42;26
44871;PMS7003;30602;51.060;17.226;2022-09-30T04:56:20;45;40;26
44871;PMS7003;30602;51.060;17.226;2022-09-30T04:59:36;47;40;25
44871;PMS7003;30602;51.060;17.226;2022-09-30T05:02:52;43;38;27
44871;PMS7003;30602;51.060;17.226;2022-09-30T05:06:31;49;41;28
44871;PMS7003;30602;51.060;17.226;2022-09-30T05:10:13;47;41;25
44871;PMS7003;30602;51.060;17.226;2022-09-30T05:13:37;48;42;29
44871;PMS7003;30602;51.060;17.226;2022-09-30T05:17:20;51;43;28
44871;PMS7003;30602;51.060;17.226;2022-09-30T05:21:31;51;43;28
44871;PMS7003;30602;51.060;17.226;2022-09-30T05:25:04;53;43;28
44871;PMS7003;30602;51.060;17.226;2022-09-30T05:28:45;52;44;28
44871;PMS7003;30602;51.060;17.226;2022-09-30T05:32:15;52;44;29
44871;PMS7003;30602;51.060;17.226;2022-09-30T05:35:29;47;42;29
44871;PMS7003;30602;51.060;17.226;2022-09-30T05:38:54;56;45;28
44871;PMS7003;30602;51.060;17.226;2022-09-30T05:42:29;57;46;30
44871;PMS7003;30602;51.060;17.226;2022-09-30T05:46:08;61;49;30
44871;PMS7003;30602;51.060;17.226;2022-09-30T05:49:41;58;46;30
44871;PMS7003;30602;51.060;17.226;2022-09-30T05:52:59;53;46;30
44871;PMS7003;30602;51.060;17.226;2022-09-30T05:56:10;61;47;29
44871;PMS7003;30602;51.060;17.226;2022-09-30T05:59:23;58;45;28
44871;PMS7003;30602;51.060;17.226;2022-09-30T06:03:09;67;50;33
44871;PMS7003;30602;51.060;17.226;2022-09-30T06:06:45;62;52;34
44871;PMS7003;30602;51.060;17.226;2022-09-30T06:10:42;59;47;29
44871;PMS7003;30602;51.060;17.226;2022-09-30T06:14:14;57;45;29
44871;PMS7003;30602;51.060;17.226;2022-09-30T06:17:33;55;45;29
44871;PMS7003;30602;51.060;17.226;2022-09-30T06:21:49;59;47;30
44871;PMS7003;30602;51.060;17.226;2022-09-30T06:25:05;49;43;27
44871;PMS7003;30602;51.060;17.226;2022-09-30T06:28:20;59;46;29
44871;PMS7003;30602;51.060;17.226;2022-09-30T06:31:32;56;44;29
44871;PMS7003;30602;51.060;17.226;2022-09-30T06:35:04;58;47;30
44871;PMS7003;30602;51.060;17.226;2022-09-30T06:39:06;60;49;31
44871;PMS7003;30602;51.060;17.226;2022-09-30T06:42:25;69;54;33
44871;PMS7003;30602;51.060;17.226;2022-09-30T06:46:12;61;49;31
44871;PMS7003;30602;51.060;17.226;2022-09-30T06:49:29;63;52;31
44871;PMS7003;30602;51.060;17.226;2022-09-30T06:53:43;73;56;34
44871;PMS7003;30602;51.060;17.226;2022-09-30T06:57:00;61;48;30
44871;PMS7003;30602;51.060;17.226;2022-09-30T07:04:22;54;45;29
44871;PMS7003;30602;51.060;17.226;2022-09-30T07:12:42;56;47;30
44871;PMS7003;30602;51.060;17.226;2022-09-30T07:16:08;60;48;30
44871;PMS7003;30602;51.060;17.226;2022-09-30T07:19:48;54;44;30
44871;PMS7003;30602;51.060;17.226;2022-09-30T07:23:27;58;47;29
44871;PMS7003;30602;51.060;17.226;2022-09-30T07:27:05;62;48;30
44871;PMS7003;30602;51.060;17.226;2022-09-30T07:30:22;59;48;29
44871;PMS7003;30602;51.060;17.226;2022-09-30T07:33:54;58;46;29
44871;PMS7003;30602;51.060;17.226;2022-09-30T07:37:58;58;45;28
44871;PMS7003;30602;51.060;17.226;2022-09-30T07:41:13;57;45;30
44871;PMS7003;30602;51.060;17.226;2022-09-30T07:44:53;52;45;29
44871;PMS7003;30602;51.060;17.226;2022-09-30T07:48:06;59;48;31
44871;PMS7003;30602;51.060;17.226;2022-09-30T07:52:52;62;48;30
44871;PMS7003;30602;51.060;17.226;2022-09-30T07:56:06;59;46;30
44871;PMS7003;30602;51.060;17.226;2022-09-30T07:59:50;57;45;29
44871;PMS7003;30602;51.060;17.226;2022-09-30T08:03:09;60;47;29
44871;PMS7003;30602;51.060;17.226;2022-09-30T08:06:27;56;44;28
44871;PMS7003;30602;51.060;17.226;2022-09-30T08:10:04;47;37;25
44871;PMS7003;30602;51.060;17.226;2022-09-30T08:13:25;54;43;28
44871;PMS7003;30602;51.060;17.226;2022-09-30T08:16:57;45;38;25
44871;PMS7003;30602;51.060;17.226;2022-09-30T08:20:47;47;40;27
44871;PMS7003;30602;51.060;17.226;2022-09-30T08:24:40;55;42;27
44871;PMS7003;30602;51.060;17.226;2022-09-30T08:28:23;49;40;26
44871;PMS7003;30602;51.060;17.226;2022-09-30T08:32:03;43;40;25
44871;PMS7003;30602;51.060;17.226;2022-09-30T08:35:33;42;36;24
44871;PMS7003;30602;51.060;17.226;2022-09-30T08:39:04;46;39;25
44871;PMS7003;30602;51.060;17.226;2022-09-30T08:46:06;51;39;25
44871;PMS7003;30602;51.060;17.226;2022-09-30T08:53:39;45;38;24
44871;PMS7003;30602;51.060;17.226;2022-09-30T09:01:43;40;36;22
44871;PMS7003;30602;51.060;17.226;2022-09-30T09:16:35;41;36;22
44871;PMS7003;30602;51.060;17.226;2022-09-30T09:23:54;35;30;20
44871;PMS7003;30602;51.060;17.226;2022-09-30T09:27:52;29;28;21
44871;PMS7003;30602;51.060;17.226;2022-09-30T09:31:04;29;29;20
44871;PMS7003;30602;51.060;17.226;2022-09-30T09:34:26;37;31;19
44871;PMS7003;30602;51.060;17.226;2022-09-30T09:41:50;32;27;19
44871;PMS7003;30602;51.060;17.226;2022-09-30T09:48:37;28;24;19
44871;PMS7003;30602;51.060;17.226;2022-09-30T09:56:21;32;28;20
44871;PMS7003;30602;51.060;17.226;2022-09-30T10:00:50;40;36;22
44871;PMS7003;30602;51.060;17.226;2022-09-30T10:08:33;42;36;22
44871;PMS7003;30602;51.060;17.226;2022-09-30T10:16:01;38;32;22
44871;PMS7003;30602;51.060;17.226;2022-09-30T10:19:36;42;35;22
44871;PMS7003;30602;51.060;17.226;2022-09-30T10:26:20;31;29;18
44871;PMS7003;30602;51.060;17.226;2022-09-30T10:29:32;31;25;19
44871;PMS7003;30602;51.060;17.226;2022-09-30T10:33:01;29;26;19
44871;PMS7003;30602;51.060;17.226;2022-09-30T10:36:43;34;24;17
44871;PMS7003;30602;51.060;17.226;2022-09-30T10:40:20;30;25;18
44871;PMS7003;30602;51.060;17.226;2022-09-30T10:44:02;33;30;19
44871;PMS7003;30602;51.060;17.226;2022-09-30T10:47:56;32;28;18
44871;PMS7003;30602;51.060;17.226;2022-09-30T10:52:14;31;30;19
44871;PMS7003;30602;51.060;17.226;2022-09-30T10:59:24;30;28;16
44871;PMS7003;30602;51.060;17.226;2022-09-30T11:03:04;33;28;18
44871;PMS7003;30602;51.060;17.226;2022-09-30T11:06:43;30;26;17
44871;PMS7003;30602;51.060;17.226;2022-09-30T11:13:37;21;19;14
44871;PMS7003;30602;51.060;17.226;2022-09-30T11:17:31;19;16;13
44871;PMS7003;30602;51.060;17.226;2022-09-30T11:21:28;19;14;11
44871;PMS7003;30602;51.060;17.226;2022-09-30T11:25:13;19;15;13
44871;PMS7003;30602;51.060;17.226;2022-09-30T11:28:35;16;15;9
44871;PMS7003;30602;51.060;17.226;2022-09-30T11:32:30;21;18;13
44871;PMS7003;30602;51.060;17.226;2022-09-30T11:54:00;13;13;11
44871;PMS7003;30602;51.060;17.226;2022-09-30T11:57:31;17;14;9
44871;PMS7003;30602;51.060;17.226;2022-09-30T12:00:50;14;10;8
44871;PMS7003;30602;51.060;17.226;2022-09-30T12:04:23;9;9;7
44871;PMS7003;30602;51.060;17.226;2022-09-30T12:11:59;11;10;7
44871;PMS7003;30602;51.060;17.226;2022-09-30T12:16:24;9;9;7
44871;PMS7003;30602;51.060;17.226;2022-09-30T12:19:37;13;10;7
44871;PMS7003;30602;51.060;17.226;2022-09-30T12:24:03;12;10;7
44871;PMS7003;30602;51.060;17.226;2022-09-30T12:27:40;10;10;8
44871;PMS7003;30602;51.060;17.226;2022-09-30T12:35:21;10;10;8
44871;PMS7003;30602;51.060;17.226;2022-09-30T12:46:14;11;9;7
44871;PMS7003;30602;51.060;17.226;2022-09-30T12:49:44;9;9;6
44871;PMS7003;30602;51.060;17.226;2022-09-30T12:53:51;11;10;7
44871;PMS7003;30602;51.060;17.226;2022-09-30T12:57:31;10;8;6
44871;PMS7003;30602;51.060;17.226;2022-09-30T13:04:30;8;8;6
44871;PMS7003;30602;51.060;17.226;2022-09-30T13:11:05;14;12;9
44871;PMS7003;30602;51.060;17.226;2022-09-30T13:14:35;11;11;9
44871;PMS7003;30602;51.060;17.226;2022-09-30T13:17:50;8;8;6
44871;PMS7003;30602;51.060;17.226;2022-09-30T13:21:39;7;7;5
44871;PMS7003;30602;51.060;17.226;2022-09-30T13:25:21;11;11;8
44871;PMS7003;30602;51.060;17.226;2022-09-30T13:36:25;10;10;7
44871;PMS7003;30602;51.060;17.226;2022-09-30T13:39:47;11;10;8
44871;PMS7003;30602;51.060;17.226;2022-09-30T13:43:33;14;13;8
44871;PMS7003;30602;51.060;17.226;2022-09-30T13:51:15;9;9;7
44871;PMS7003;30602;51.060;17.226;2022-09-30T13:54:38;12;10;9
44871;PMS7003;30602;51.060;17.226;2022-09-30T14:05:31;13;10;7
44871;PMS7003;30602;51.060;17.226;2022-09-30T14:23:29;11;10;7
44871;PMS7003;30602;51.060;17.226;2022-09-30T14:30:36;10;9;6
44871;PMS7003;30602;51.060;17.226;2022-09-30T14:34:48;10;8;5
44871;PMS7003;30602;51.060;17.226;2022-09-30T14:38:22;10;10;7
44871;PMS7003;30602;51.060;17.226;2022-09-30T14:41:28;10;9;7
44871;PMS7003;30602;51.060;17.226;2022-09-30T14:44:42;13;10;7
44871;PMS7003;30602;51.060;17.226;2022-09-30T14:47:50;12;10;7
44871;PMS7003;30602;51.060;17.226;2022-09-30T14:51:42;10;10;7
44871;PMS7003;30602;51.060;17.226;2022-09-30T14:54:53;10;9;7
44871;PMS7003;30602;51.060;17.226;2022-09-30T15:02:56;9;8;6
44871;PMS7003;30602;51.060;17.226;2022-09-30T15:10:30;12;9;7
44871;PMS7003;30602;51.060;17.226;2022-09-30T15:14:52;18;11;8
44871;PMS7003;30602;51.060;17.226;2022-09-30T15:18:43;16;14;10
44871;PMS7003;30602;51.060;17.226;2022-09-30T15:22:04;14;10;9
44871;PMS7003;30602;51.060;17.226;2022-09-30T15:25:47;10;9;8
44871;PMS7003;30602;51.060;17.226;2022-09-30T15:29:12;11;11;8
44871;PMS7003;30602;51.060;17.226;2022-09-30T15:32:22;11;8;6
44871;PMS7003;30602;51.060;17.226;2022-09-30T15:36:33;14;11;6
44871;PMS7003;30602;51.060;17.226;2022-09-30T15:40:11;11;10;7
44871;PMS7003;30602;51.060;17.226;2022-09-30T15:43:37;12;9;8
44871;PMS7003;30602;51.060;17.226;2022-09-30T15:47:03;10;8;7
44871;PMS7003;30602;51.060;17.226;2022-09-30T15:50:51;16;11;9
44871;PMS7003;30602;51.060;17.226;2022-09-30T15:57:51;12;10;8
44871;PMS7003;30602;51.060;17.226;2022-09-30T16:01:25;14;12;9
44871;PMS7003;30602;51.060;17.226;2022-09-30T16:04:48;13;11;8
44871;PMS7003;30602;51.060;17.226;2022-09-30T16:08:05;14;13;9
44871;PMS7003;30602;51.060;17.226;2022-09-30T16:15:52;18;18;12
44871;PMS7003;30602;51.060;17.226;2022-09-30T16:23:04;22;16;12
44871;PMS7003;30602;51.060;17.226;2022-09-30T16:27:30;19;16;13
44871;PMS7003;30602;51.060;17.226;2022-09-30T16:30:52;17;17;12
44871;PMS7003;30602;51.060;17.226;2022-09-30T16:34:45;17;15;12
44871;PMS7003;30602;51.060;17.226;2022-09-30T16:38:45;15;14;11
44871;PMS7003;30602;51.060;17.226;2022-09-30T16:42:17;23;16;12
44871;PMS7003;30602;51.060;17.226;2022-09-30T16:46:00;17;15;11
44871;PMS7003;30602;51.060;17.226;2022-09-30T16:49:31;19;16;11
44871;PMS7003;30602;51.060;17.226;2022-09-30T16:53:14;22;20;15
44871;PMS7003;30602;51.060;17.226;2022-09-30T16:56:45;17;17;13
44871;PMS7003;30602;51.060;17.226;2022-09-30T17:00:19;22;18;11
44871;PMS7003;30602;51.060;17.226;2022-09-30T17:04:30;31;27;17
44871;PMS7003;30602;51.060;17.226;2022-09-30T17:08:35;22;20;16
44871;PMS7003;30602;51.060;17.226;2022-09-30T17:11:44;26;25;19
44871;PMS7003;30602;51.060;17.226;2022-09-30T17:14:54;28;22;18
44871;PMS7003;30602;51.060;17.226;2022-09-30T17:18:03;23;21;17
44871;PMS7003;30602;51.060;17.226;2022-09-30T17:21:19;21;19;15
44871;PMS7003;30602;51.060;17.226;2022-09-30T17:24:36;18;18;14
44871;PMS7003;30602;51.060;17.226;2022-09-30T17:28:29;20;18;14
44871;PMS7003;30602;51.060;17.226;2022-09-30T17:32:04;22;21;16
44871;PMS7003;30602;51.060;17.226;2022-09-30T17:39:33;33;28;19
44871;PMS7003;30602;51.060;17.226;2022-09-30T17:43:43;28;25;19
44871;PMS7003;30602;51.060;17.226;2022-09-30T17:46:57;22;20;13
44871;PMS7003;30602;51.060;17.226;2022-09-30T17:51:17;27;23;16
44871;PMS7003;30602;51.060;17.226;2022-09-30T17:54:28;26;24;17
44871;PMS7003;30602;51.060;17.226;2022-09-30T17:57:48;34;31;22
44871;PMS7003;30602;51.060;17.226;2022-09-30T18:01:08;36;33;21
44871;PMS7003;30602;51.060;17.226;2022-09-30T18:04:18;39;33;21
44871;PMS7003;30602;51.060;17.226;2022-09-30T18:07:54;34;30;23
44871;PMS7003;30602;51.060;17.226;2022-09-30T18:11:43;46;39;26
44871;PMS7003;30602;51.060;17.226;2022-09-30T18:15:04;44;39;27
44871;PMS7003;30602;51.060;17.226;2022-09-30T18:19:11;43;37;24
44871;PMS7003;30602;51.060;17.226;2022-09-30T18:22:58;47;38;25
44871;PMS7003;30602;51.060;17.226;2022-09-30T18:26:31;44;38;26
44871;PMS7003;30602;51.060;17.226;2022-09-30T18:30:45;49;41;26
44871;PMS7003;30602;51.060;17.226;2022-09-30T18:33:55;40;37;25
44871;PMS7003;30602;51.060;17.226;2022-09-30T18:38:10;44;39;24
44871;PMS7003;30602;51.060;17.226;2022-09-30T18:41:44;32;28;21
44871;PMS7003;30602;51.060;17.226;2022-09-30T18:45:55;48;40;23
44871;PMS7003;30602;51.060;17.226;2022-09-30T18:49:06;40;35;24
44871;PMS7003;30602;51.060;17.226;2022-09-30T18:52:35;38;37;26
44871;PMS7003;30602;51.060;17.226;2022-09-30T18:55:44;44;40;27
44871;PMS7003;30602;51.060;17.226;2022-09-30T18:58:55;53;42;27
44871;PMS7003;30602;51.060;17.226;2022-09-30T19:02:33;40;36;24
44871;PMS7003;30602;51.060;17.226;2022-09-30T19:05:44;54;42;28
44871;PMS7003;30602;51.060;17.226;2022-09-30T19:09:20;52;42;28
44871;PMS7003;30602;51.060;17.226;2022-09-30T19:13:11;58;48;30
44871;PMS7003;30602;51.060;17.226;2022-09-30T19:16:30;47;37;24
44871;PMS7003;30602;51.060;17.226;2022-09-30T19:20:10;48;39;27
44871;PMS7003;30602;51.060;17.226;2022-09-30T19:23:29;49;41;27
44871;PMS7003;30602;51.060;17.226;2022-09-30T19:28:06;47;41;26
44871;PMS7003;30602;51.060;17.226;2022-09-30T19:31:20;51;42;27
44871;PMS7003;30602;51.060;17.226;2022-09-30T19:34:43;48;41;25
44871;PMS7003;30602;51.060;17.226;2022-09-30T19:38:08;43;36;23
44871;PMS7003;30602;51.060;17.226;2022-09-30T19:41:53;38;32;23
44871;PMS7003;30602;51.060;17.226;2022-09-30T19:45:05;45;40;25
44871;PMS7003;30602;51.060;17.226;2022-09-30T19:48:16;48;40;26
44871;PMS7003;30602;51.060;17.226;2022-09-30T19:51:48;50;40;26
44871;PMS7003;30602;51.060;17.226;2022-09-30T19:54:59;40;37;25
44871;PMS7003;30602;51.060;17.226;2022-09-30T19:58:41;59;49;30
44871;PMS7003;30602;51.060;17.226;2022-09-30T20:02:59;69;56;34
44871;PMS7003;30602;51.060;17.226;2022-09-30T20:06:32;69;54;33
44871;PMS7003;30602;51.060;17.226;2022-09-30T20:10:41;69;54;35
44871;PMS7003;30602;51.060;17.226;2022-09-30T20:13:57;64;51;34
44871;PMS7003;30602;51.060;17.226;2022-09-30T20:17:42;70;55;33
44871;PMS7003;30602;51.060;17.226;2022-09-30T20:21:00;62;51;31
44871;PMS7003;30602;51.060;17.226;2022-09-30T20:24:52;59;50;33
44871;PMS7003;30602;51.060;17.226;2022-09-30T20:28:02;61;50;33
44871;PMS7003;30602;51.060;17.226;2022-09-30T20:32:28;60;48;30
44871;PMS7003;30602;51.060;17.226;2022-09-30T20:36:37;56;45;30
44871;PMS7003;30602;51.060;17.226;2022-09-30T20:39:48;55;43;29
44871;PMS7003;30602;51.060;17.226;2022-09-30T20:42:58;57;46;30
44871;PMS7003;30602;51.060;17.226;2022-09-30T20:46:45;57;46;30
44871;PMS7003;30602;51.060;17.226;2022-09-30T20:54:03;53;45;29
44871;PMS7003;30602;51.060;17.226;2022-09-30T20:57:30;47;41;28
44871;PMS7003;30602;51.060;17.226;2022-09-30T21:00:51;44;40;25
44871;PMS7003;30602;51.060;17.226;2022-09-30T21:04:35;48;42;28
44871;PMS7003;30602;51.060;17.226;2022-09-30T21:08:01;50;43;27
44871;PMS7003;30602;51.060;17.226;2022-09-30T21:11:09;55;44;29
44871;PMS7003;30602;51.060;17.226;2022-09-30T21:15:06;65;51;32
44871;PMS7003;30602;51.060;17.226;2022-09-30T21:18:40;61;50;32
44871;PMS7003;30602;51.060;17.226;2022-09-30T21:22:10;56;47;31
44871;PMS7003;30602;51.060;17.226;2022-09-30T21:29:56;69;57;34
44871;PMS7003;30602;51.060;17.226;2022-09-30T21:33:18;70;55;34
44871;PMS7003;30602;51.060;17.226;2022-09-30T21:36:31;65;55;35
44871;PMS7003;30602;51.060;17.226;2022-09-30T21:40:32;74;58;37
44871;PMS7003;30602;51.060;17.226;2022-09-30T21:44:04;63;50;31
44871;PMS7003;30602;51.060;17.226;2022-09-30T21:47:43;69;55;35
44871;PMS7003;30602;51.060;17.226;2022-09-30T21:51:04;62;51;33
44871;PMS7003;30602;51.060;17.226;2022-09-30T21:54:23;69;53;34
44871;PMS7003;30602;51.060;17.226;2022-09-30T21:57:35;71;54;35
44871;PMS7003;30602;51.060;17.226;2022-09-30T22:01:07;65;54;35
44871;PMS7003;30602;51.060;17.226;2022-09-30T22:09:11;62;51;32
44871;PMS7003;30602;51.060;17.226;2022-09-30T22:12:38;61;50;32
44871;PMS7003;30602;51.060;17.226;2022-09-30T22:16:26;65;51;33
44871;PMS7003;30602;51.060;17.226;2022-09-30T22:20:31;69;51;31
44871;PMS7003;30602;51.060;17.226;2022-09-30T22:24:05;64;52;33
44871;PMS7003;30602;51.060;17.226;2022-09-30T22:27:29;58;46;31
44871;PMS7003;30602;51.060;17.226;2022-09-30T22:30:42;66;53;33
44871;PMS7003;30602;51.060;17.226;2022-09-30T22:35:37;68;53;32
44871;PMS7003;30602;51.060;17.226;2022-09-30T22:39:22;56;47;30
44871;PMS7003;30602;51.060;17.226;2022-09-30T22:42:35;57;48;31
44871;PMS7003;30602;51.060;17.226;2022-09-30T22:46:06;53;44;29
44871;PMS7003;30602;51.060;17.226;2022-09-30T22:49:29;64;52;31
44871;PMS7003;30602;51.060;17.226;2022-09-30T22:52:43;60;49;29
44871;PMS7003;30602;51.060;17.226;2022-09-30T22:56:20;58;47;29
44871;PMS7003;30602;51.060;17.226;2022-09-30T22:59:48;53;45;31
44871;PMS7003;30602;51.060;17.226;2022-09-30T23:03:07;54;47;31
44871;PMS7003;30602;51.060;17.226;2022-09-30T23:06:20;55;47;30
44871;PMS7003;30602;51.060;17.226;2022-09-30T23:10:12;63;50;32
44871;PMS7003;30602;51.060;17.226;2022-09-30T23:13:29;65;50;30
44871;PMS7003;30602;51.060;17.226;2022-09-30T23:17:17;59;47;29
44871;PMS7003;30602;51.060;17.226;2022-09-30T23:21:06;66;50;31
44871;PMS7003;30602;51.060;17.226;2022-09-30T23:24:26;57;46;30
44871;PMS7003;30602;51.060;17.226;2022-09-30T23:28:21;64;50;31
44871;PMS7003;30602;51.060;17.226;2022-09-30T23:32:38;59;48;30
44871;PMS7003;30602;51.060;17.226;2022-09-30T23:36:10;62;50;31
44871;PMS7003;30602;51.060;17.226;2022-09-30T23:39:46;54;43;25
44871;PMS7003;30602;51.060;17.226;2022-09-30T23:47:14;62;48;31
44871;PMS7003;30602;51.060;17.226;2022-09-30T23:50:45;55;47;30
44871;PMS7003;30602;51.060;17.226;2022-09-30T23:54:17;56;48;32
44871;PMS7003;30602;51.060;17.226;2022-09-30T23:57:59;61;49;31
